Time;durP1;ratioP1;P1;durP2;ratioP2;P2;SDS_P1;SDS_P2;PMS_P1;PMS_P2;Temp;Humidity;BMP_temperature;BMP_pressure;BME280_temperature;BME280_humidity;BME280_pressure;Samples;Min_cycle;Max_cycle;Signal;HPM_P1;HPM_P2
2021/05/15 00:01:13;;;;;;;5.70;4.55;;;14.90;75.70;;;;;;5088570;28;20377;-77
2021/05/15 00:03:39;;;;;;;8.75;5.13;;;14.80;75.70;;;;;;5107218;28;20066;-79
2021/05/15 00:06:06;;;;;;;7.50;4.72;;;14.80;76.00;;;;;;5092114;28;20020;-79
2021/05/15 00:08:32;;;;;;;6.53;4.60;;;14.70;76.00;;;;;;5081978;28;20035;-78
2021/05/15 00:10:58;;;;;;;8.25;4.72;;;14.70;75.90;;;;;;5108186;28;20012;-79
2021/05/15 00:13:24;;;;;;;6.28;4.50;;;14.60;76.20;;;;;;5104303;28;20028;-80
2021/05/15 00:15:51;;;;;;;6.22;4.60;;;14.60;76.10;;;;;;5102795;28;20011;-79
2021/05/15 00:18:17;;;;;;;7.57;5.00;;;14.60;77.10;;;;;;5101734;28;20027;-78
2021/05/15 00:20:42;;;;;;;7.30;5.38;;;14.50;77.20;;;;;;5109573;28;20028;-78
2021/05/15 00:23:08;;;;;;;6.65;4.82;;;14.50;77.60;;;;;;5088800;28;20028;-79
2021/05/15 00:25:34;;;;;;;6.13;4.72;;;14.40;77.60;;;;;;5101053;28;20153;-79
2021/05/15 00:28:00;;;;;;;5.70;4.35;;;14.40;77.90;;;;;;5111859;28;20376;-78
2021/05/15 00:30:26;;;;;;;5.43;4.78;;;14.40;78.20;;;;;;5087021;28;20091;-79
2021/05/15 00:32:52;;;;;;;5.70;4.40;;;14.30;78.20;;;;;;5100296;28;20020;-79
2021/05/15 00:35:18;;;;;;;5.88;4.80;;;14.30;78.10;;;;;;5083648;28;20023;-79
2021/05/15 00:37:44;;;;;;;6.80;5.10;;;14.20;78.30;;;;;;5083626;28;20027;-79
2021/05/15 00:40:11;;;;;;;7.00;5.35;;;14.20;78.60;;;;;;5111757;28;20054;-79
2021/05/15 00:42:37;;;;;;;7.63;4.70;;;14.20;78.90;;;;;;5093484;28;20031;-79
2021/05/15 00:45:07;;;;;;;9.23;5.20;;;14.10;78.90;;;;;;5097170;28;20055;-78
2021/05/15 00:47:33;;;;;;;8.15;5.80;;;14.10;79.30;;;;;;5093692;28;20484;-78
2021/05/15 00:49:59;;;;;;;7.70;5.15;;;14.10;79.60;;;;;;5103857;28;20024;-78
2021/05/15 00:52:34;;;;;;;6.20;4.78;;;14.00;79.50;;;;;;5105845;28;20082;-78
2021/05/15 00:55:00;;;;;;;8.15;5.30;;;14.00;80.00;;;;;;5089221;28;20472;-79
2021/05/15 00:57:26;;;;;;;6.85;5.57;;;13.90;80.00;;;;;;5075970;28;20138;-79
2021/05/15 00:59:52;;;;;;;9.00;5.45;;;13.90;80.20;;;;;;5105285;28;20429;-78
2021/05/15 01:02:18;;;;;;;12.30;6.10;;;13.90;80.20;;;;;;5083157;28;20028;-78
2021/05/15 01:04:44;;;;;;;8.60;5.55;;;13.90;80.60;;;;;;5111993;28;20077;-81
2021/05/15 01:07:10;;;;;;;7.50;5.45;;;13.80;80.70;;;;;;5093283;28;20454;-80
2021/05/15 01:09:37;;;;;;;9.90;5.57;;;13.80;81.20;;;;;;5080128;28;20069;-80
2021/05/15 01:12:08;;;;;;;7.88;5.18;;;13.80;81.30;;;;;;5092217;28;20365;-81
2021/05/15 01:14:35;;;;;;;9.27;5.75;;;13.80;81.30;;;;;;5103243;28;20500;-81
2021/05/15 01:17:01;;;;;;;9.57;5.70;;;13.70;81.40;;;;;;5093847;28;20030;-81
2021/05/15 01:19:27;;;;;;;11.50;6.13;;;13.70;81.70;;;;;;5091336;28;20020;-80
2021/05/15 01:21:53;;;;;;;7.75;6.15;;;13.70;82.10;;;;;;5092342;28;20076;-81
2021/05/15 01:24:20;;;;;;;9.02;5.95;;;13.60;81.80;;;;;;5092399;28;20020;-81
2021/05/15 01:26:45;;;;;;;8.98;6.07;;;13.60;81.90;;;;;;5078402;28;20028;-81
2021/05/15 01:29:11;;;;;;;7.18;5.38;;;13.60;82.00;;;;;;5110306;28;20032;-80
2021/05/15 01:31:38;;;;;;;9.63;6.72;;;13.50;81.90;;;;;;5090808;28;20110;-81
2021/05/15 01:34:05;;;;;;;8.63;5.72;;;13.50;82.00;;;;;;5093287;28;20436;-81
2021/05/15 01:36:35;;;;;;;6.85;5.28;;;13.40;82.10;;;;;;5101820;28;20020;-81
2021/05/15 01:39:01;;;;;;;7.05;5.68;;;13.40;82.10;;;;;;5087887;28;20040;-80
2021/05/15 01:41:26;;;;;;;10.48;5.90;;;13.40;82.40;;;;;;5092870;28;20031;-81
2021/05/15 01:43:57;;;;;;;7.40;5.78;;;13.30;82.40;;;;;;5096570;27;20105;-81
2021/05/15 01:46:22;;;;;;;8.68;6.22;;;13.30;82.40;;;;;;5090271;28;20427;-81
2021/05/15 01:48:48;;;;;;;8.43;5.97;;;13.30;82.80;;;;;;5091832;28;20094;-81
2021/05/15 01:51:14;;;;;;;9.38;6.57;;;13.20;82.70;;;;;;5097975;28;20531;-81
2021/05/15 01:53:42;;;;;;;8.98;6.70;;;13.20;83.20;;;;;;5081096;28;20104;-81
2021/05/15 01:56:11;;;;;;;13.63;7.50;;;13.10;83.20;;;;;;5096697;28;20069;-81
2021/05/15 01:58:39;;;;;;;9.85;7.57;;;13.10;83.40;;;;;;5091484;28;20028;-80
2021/05/15 02:01:06;;;;;;;9.38;7.38;;;13.10;83.70;;;;;;5081201;28;20024;-78
2021/05/15 02:03:36;;;;;;;8.48;6.75;;;13.10;84.10;;;;;;5114689;28;20024;-78
2021/05/15 02:06:02;;;;;;;9.27;7.03;;;13.00;84.20;;;;;;5088007;28;20016;-79
2021/05/15 02:08:28;;;;;;;7.90;5.90;;;13.00;84.40;;;;;;5095529;28;20019;-79
2021/05/15 02:11:00;;;;;;;8.07;6.50;;;13.00;84.50;;;;;;5090378;28;20020;-78
2021/05/15 02:13:27;;;;;;;10.20;6.78;;;13.00;84.60;;;;;;5088427;28;20032;-79
2021/05/15 02:15:57;;;;;;;9.43;7.32;;;13.00;84.90;;;;;;5096287;28;20068;-78
2021/05/15 02:18:28;;;;;;;11.07;6.93;;;13.00;85.30;;;;;;5090475;28;20114;-78
2021/05/15 02:20:55;;;;;;;11.27;7.65;;;12.90;85.10;;;;;;5108303;28;20015;-78
2021/05/15 02:23:21;;;;;;;12.02;7.65;;;12.90;85.20;;;;;;5088550;28;20110;-78
2021/05/15 02:25:48;;;;;;;10.75;7.55;;;12.90;85.40;;;;;;5114393;28;20054;-78
2021/05/15 02:28:17;;;;;;;13.27;8.30;;;12.90;86.20;;;;;;5114629;28;20024;-79
2021/05/15 02:30:50;;;;;;;12.30;8.10;;;13.00;85.80;;;;;;5107635;28;20035;-78
2021/05/15 02:33:16;;;;;;;13.03;8.20;;;12.90;85.90;;;;;;5086073;28;20031;-78
2021/05/15 02:35:42;;;;;;;10.60;7.55;;;13.00;86.10;;;;;;5090712;28;20252;-79
2021/05/15 02:38:10;;;;;;;10.18;7.75;;;12.90;86.00;;;;;;5114150;28;20528;-77
2021/05/15 02:40:37;;;;;;;13.20;7.80;;;13.00;86.10;;;;;;5096541;28;20105;-79
2021/05/15 02:43:06;;;;;;;12.52;8.15;;;12.90;86.30;;;;;;5066756;28;20114;-78
2021/05/15 02:45:32;;;;;;;13.30;8.25;;;12.90;86.10;;;;;;5100341;28;20110;-78
2021/05/15 02:47:58;;;;;;;13.07;9.13;;;13.00;86.30;;;;;;5079407;28;20019;-78
2021/05/15 02:50:25;;;;;;;13.10;10.07;;;12.90;86.30;;;;;;5095629;28;20035;-79
2021/05/15 02:52:51;;;;;;;14.20;10.75;;;12.90;86.50;;;;;;5084254;28;20426;-78
2021/05/15 02:55:20;;;;;;;16.88;11.30;;;13.00;86.60;;;;;;5111120;28;20016;-77
2021/05/15 02:57:50;;;;;;;14.20;10.07;;;13.00;86.70;;;;;;5102260;28;20084;-80
2021/05/15 03:00:19;;;;;;;15.70;9.55;;;13.00;86.50;;;;;;5070817;28;20039;-78
2021/05/15 03:02:46;;;;;;;15.00;9.90;;;13.00;86.60;;;;;;5113506;28;20039;-78
2021/05/15 03:05:15;;;;;;;13.93;9.98;;;13.10;86.60;;;;;;5112011;28;20070;-79
2021/05/15 03:07:41;;;;;;;15.02;10.55;;;13.10;86.60;;;;;;5114854;28;20020;-78
2021/05/15 03:10:11;;;;;;;13.80;10.55;;;13.20;86.70;;;;;;5093129;28;20030;-78
2021/05/15 03:12:37;;;;;;;14.27;10.35;;;13.20;86.60;;;;;;5091869;28;20122;-80
2021/05/15 03:15:16;;;;;;;;;;;;;;;;;;;;;
2021/05/15 03:17:43;;;;;;;14.68;9.60;;;13.30;86.60;;;;;;5113488;28;20030;-80
2021/05/15 03:20:13;;;;;;;12.45;10.02;;;13.40;86.40;;;;;;5088955;28;20327;-78
2021/05/15 03:22:38;;;;;;;13.77;9.48;;;13.40;86.30;;;;;;5084568;28;20435;-79
2021/05/15 03:25:05;;;;;;;14.02;9.25;;;13.40;86.10;;;;;;5093426;28;20057;-79
2021/05/15 03:27:31;;;;;;;13.95;9.60;;;13.40;86.10;;;;;;5082344;28;20673;-77
2021/05/15 03:29:57;;;;;;;16.20;9.55;;;13.50;86.00;;;;;;5092126;28;20028;-77
2021/05/15 03:32:24;;;;;;;12.90;9.00;;;13.50;85.70;;;;;;5095039;28;20073;-79
2021/05/15 03:34:50;;;;;;;13.25;9.18;;;13.60;85.70;;;;;;5093634;28;20484;-77
2021/05/15 03:37:17;;;;;;;13.55;9.55;;;13.50;85.70;;;;;;5093813;28;20077;-79
2021/05/15 03:39:43;;;;;;;12.23;9.10;;;13.60;85.60;;;;;;5098598;28;20063;-78
2021/05/15 03:42:08;;;;;;;13.30;9.73;;;13.60;85.50;;;;;;5112329;28;20096;-77
2021/05/15 03:44:34;;;;;;;14.18;10.00;;;13.60;85.30;;;;;;5112354;28;20556;-79
2021/05/15 03:47:00;;;;;;;12.73;9.73;;;13.70;85.40;;;;;;5104855;28;20023;-76
2021/05/15 03:49:26;;;;;;;14.77;10.18;;;13.70;85.30;;;;;;5098986;28;20103;-78
2021/05/15 03:51:51;;;;;;;14.52;9.60;;;13.70;85.10;;;;;;5096480;28;20054;-78
2021/05/15 03:54:17;;;;;;;17.55;8.98;;;13.80;85.00;;;;;;5084570;28;20036;-76
2021/05/15 03:56:43;;;;;;;14.63;9.20;;;13.80;85.00;;;;;;5093823;28;20503;-78
2021/05/15 03:59:14;;;;;;;15.52;9.77;;;13.90;84.80;;;;;;5089678;28;20122;-78
2021/05/15 04:01:40;;;;;;;12.63;8.95;;;14.00;84.50;;;;;;5111766;28;20023;-78
2021/05/15 04:04:05;;;;;;;11.82;8.82;;;14.00;84.50;;;;;;5112009;28;20380;-78
2021/05/15 04:06:31;;;;;;;12.15;9.10;;;14.10;84.10;;;;;;5111665;28;20495;-79
2021/05/15 04:08:58;;;;;;;12.02;9.35;;;14.10;84.10;;;;;;5101865;28;20039;-77
2021/05/15 04:11:33;;;;;;;10.48;8.07;;;14.20;83.70;;;;;;5087645;28;20385;-78
2021/05/15 04:14:01;;;;;;;11.20;8.70;;;14.20;83.50;;;;;;5089192;28;20456;-78
2021/05/15 04:19:29;;;;;;;11.40;7.97;;;14.30;83.10;;;;;;5036600;28;20047;-79
2021/05/15 04:21:57;;;;;;;11.77;8.15;;;14.40;82.80;;;;;;5085865;28;20040;-79
2021/05/15 04:24:25;;;;;;;10.55;7.85;;;14.40;82.70;;;;;;5088572;28;20407;-79
2021/05/15 04:26:59;;;;;;;10.63;7.95;;;14.40;82.70;;;;;;5081705;28;20024;-78
2021/05/15 04:29:26;;;;;;;12.30;7.88;;;14.50;82.70;;;;;;5087813;28;20077;-78
2021/05/15 04:31:56;;;;;;;11.13;8.25;;;14.50;82.50;;;;;;5094239;28;20024;-79
2021/05/15 04:34:22;;;;;;;13.13;8.93;;;14.60;82.40;;;;;;5083406;28;20119;-78
2021/05/15 04:36:48;;;;;;;11.50;8.55;;;14.70;81.70;;;;;;5079079;28;20046;-79
2021/05/15 04:39:14;;;;;;;10.38;7.38;;;14.80;81.30;;;;;;5107384;28;20079;-79
2021/05/15 04:41:41;;;;;;;10.70;7.75;;;14.80;81.30;;;;;;5100720;28;20062;-79
2021/05/15 04:44:07;;;;;;;11.82;7.43;;;14.90;81.00;;;;;;5066209;28;20072;-78
2021/05/15 04:46:33;;;;;;;12.45;7.50;;;15.00;80.60;;;;;;5090773;28;20027;-78
2021/05/15 04:48:58;;;;;;;12.13;7.07;;;15.10;80.00;;;;;;5082183;28;20472;-77
2021/05/15 04:51:24;;;;;;;10.80;7.40;;;15.10;79.90;;;;;;5106159;28;20029;-77
2021/05/15 04:53:50;;;;;;;11.68;6.90;;;15.20;79.30;;;;;;5093266;28;20444;-79
2021/05/15 04:56:16;;;;;;;9.70;6.78;;;15.30;78.80;;;;;;5093146;28;20111;-79
2021/05/15 04:58:42;;;;;;;10.88;7.68;;;15.30;79.20;;;;;;5109704;28;20016;-79
2021/05/15 05:01:09;;;;;;;10.68;6.57;;;15.40;78.50;;;;;;5085122;28;20028;-78
2021/05/15 05:03:35;;;;;;;10.13;7.25;;;15.40;78.40;;;;;;5084387;28;20110;-78
2021/05/15 05:06:00;;;;;;;11.95;7.13;;;15.50;77.60;;;;;;5067292;28;20035;-78
2021/05/15 05:08:26;;;;;;;12.90;7.45;;;15.60;77.40;;;;;;5110700;28;20020;-78
2021/05/15 05:10:54;;;;;;;11.00;7.43;;;15.60;77.60;;;;;;5104256;28;20059;-80
2021/05/15 05:13:20;;;;;;;12.30;7.47;;;15.70;77.20;;;;;;5087748;28;20043;-79
2021/05/15 05:15:47;;;;;;;11.63;7.30;;;15.70;77.20;;;;;;5087916;28;20032;-79
2021/05/15 05:18:13;;;;;;;9.38;6.63;;;15.80;77.10;;;;;;5112652;28;20020;-77
2021/05/15 05:20:39;;;;;;;11.05;7.07;;;15.90;76.90;;;;;;5093460;28;20028;-77
2021/05/15 05:23:06;;;;;;;9.90;7.05;;;16.00;76.90;;;;;;5099264;28;20942;-77
2021/05/15 05:25:32;;;;;;;11.38;6.95;;;16.10;76.70;;;;;;5098845;28;20103;-76
2021/05/15 05:27:58;;;;;;;9.18;6.50;;;16.20;76.20;;;;;;5095112;28;20103;-77
2021/05/15 05:30:25;;;;;;;8.15;5.80;;;16.30;75.90;;;;;;5092696;28;20122;-78
2021/05/15 05:32:52;;;;;;;8.68;6.10;;;16.40;76.00;;;;;;5107397;28;20020;-78
2021/05/15 05:35:20;;;;;;;8.57;5.72;;;16.50;75.40;;;;;;5104803;28;20024;-78
2021/05/15 05:37:48;;;;;;;8.70;5.65;;;16.60;74.40;;;;;;5078986;28;20029;-79
2021/05/15 05:40:15;;;;;;;7.50;5.68;;;16.70;74.00;;;;;;5110487;28;20136;-79
2021/05/15 05:42:42;;;;;;;7.03;5.78;;;16.80;73.90;;;;;;5109391;28;20539;-78
2021/05/15 05:45:11;;;;;;;7.43;5.18;;;16.90;73.60;;;;;;5108573;28;20035;-79
2021/05/15 05:47:37;;;;;;;6.53;4.60;;;17.00;73.70;;;;;;5110052;28;20426;-78
2021/05/15 05:50:06;;;;;;;6.90;4.90;;;17.10;72.80;;;;;;5102650;28;20024;-78
2021/05/15 05:52:33;;;;;;;7.53;4.57;;;17.10;72.30;;;;;;5097335;28;20016;-77
2021/05/15 05:54:59;;;;;;;5.45;3.80;;;17.20;72.30;;;;;;5091351;28;20035;-77
2021/05/15 05:57:25;;;;;;;5.20;3.60;;;17.30;71.10;;;;;;5097268;28;20016;-76
2021/05/15 05:59:50;;;;;;;5.57;3.65;;;17.40;70.70;;;;;;5110297;28;20028;-77
2021/05/15 06:02:16;;;;;;;5.07;3.55;;;17.50;69.80;;;;;;5089430;28;20404;-77
2021/05/15 06:04:42;;;;;;;7.47;3.47;;;17.60;69.20;;;;;;5114927;28;20020;-77
2021/05/15 06:07:08;;;;;;;5.07;3.50;;;17.60;68.90;;;;;;5085135;28;20032;-78
2021/05/15 06:09:34;;;;;;;5.15;3.17;;;17.70;68.60;;;;;;5114175;28;20681;-77
2021/05/15 06:12:00;;;;;;;5.18;3.25;;;17.80;67.70;;;;;;5096833;28;20084;-78
2021/05/15 06:14:26;;;;;;;3.80;2.95;;;17.90;68.00;;;;;;5114857;28;20099;-79
2021/05/15 06:16:53;;;;;;;5.50;2.90;;;17.90;67.80;;;;;;5075459;28;20122;-78
2021/05/15 06:19:19;;;;;;;4.00;3.10;;;18.00;67.50;;;;;;5096278;28;20552;-77
2021/05/15 06:21:45;;;;;;;4.95;2.80;;;18.10;67.50;;;;;;5084836;28;20119;-77
2021/05/15 06:24:11;;;;;;;3.92;2.95;;;18.20;67.30;;;;;;5114585;28;20024;-78
2021/05/15 06:26:37;;;;;;;3.92;2.50;;;18.30;67.00;;;;;;5079296;28;20042;-78
2021/05/15 06:29:04;;;;;;;3.95;2.80;;;18.40;65.80;;;;;;5099864;28;20024;-78
2021/05/15 06:31:30;;;;;;;2.92;2.63;;;18.50;65.70;;;;;;5087775;28;20030;-78
2021/05/15 06:33:58;;;;;;;3.17;2.70;;;18.60;65.60;;;;;;5106032;28;20016;-78
2021/05/15 06:36:24;;;;;;;3.47;2.45;;;18.70;64.70;;;;;;5102440;28;20024;-78
2021/05/15 06:38:50;;;;;;;3.35;2.20;;;18.80;64.70;;;;;;5076178;28;20035;-79
2021/05/15 06:41:16;;;;;;;2.90;2.38;;;18.80;63.90;;;;;;5069989;28;20047;-78
2021/05/15 06:43:42;;;;;;;4.45;2.40;;;18.90;63.50;;;;;;5095096;28;20111;-77
2021/05/15 06:46:09;;;;;;;3.08;2.15;;;19.00;63.00;;;;;;5095524;28;20039;-77
2021/05/15 06:48:36;;;;;;;2.83;2.13;;;19.10;63.20;;;;;;5079464;28;20036;-78
2021/05/15 06:51:01;;;;;;;6.50;2.50;;;19.20;62.10;;;;;;5093529;28;20549;-78
2021/05/15 06:53:27;;;;;;;2.78;2.30;;;19.30;61.00;;;;;;5090936;28;20028;-79
2021/05/15 06:55:53;;;;;;;4.32;2.25;;;19.40;60.40;;;;;;5088118;28;20015;-78
2021/05/15 06:58:18;;;;;;;4.80;2.17;;;19.40;60.50;;;;;;5095551;28;20036;-78
2021/05/15 07:00:44;;;;;;;2.13;1.80;;;19.50;60.50;;;;;;5095594;28;20036;-79
2021/05/15 07:03:10;;;;;;;2.15;1.95;;;19.50;59.80;;;;;;5113917;28;20121;-79
2021/05/15 07:05:36;;;;;;;5.20;2.10;;;19.60;59.80;;;;;;5107071;28;20043;-79
2021/05/15 07:08:02;;;;;;;3.03;2.00;;;19.70;59.70;;;;;;5109456;28;20020;-79
2021/05/15 07:10:28;;;;;;;4.05;2.47;;;19.80;59.10;;;;;;5092366;28;20024;-76
2021/05/15 07:12:54;;;;;;;2.13;1.90;;;19.90;58.20;;;;;;5086518;28;20057;-76
2021/05/15 07:15:22;;;;;;;3.03;1.98;;;19.90;58.40;;;;;;5088578;28;20024;-76
2021/05/15 07:17:50;;;;;;;2.20;1.80;;;20.00;57.90;;;;;;5087516;28;20097;-77
2021/05/15 07:20:16;;;;;;;4.25;2.40;;;20.00;57.60;;;;;;5098395;28;20058;-78
2021/05/15 07:22:43;;;;;;;4.32;2.50;;;20.00;57.90;;;;;;5107302;28;20061;-78
2021/05/15 07:25:10;;;;;;;2.83;2.25;;;20.10;58.30;;;;;;5080581;28;20028;-78
2021/05/15 07:27:36;;;;;;;4.57;2.22;;;20.20;58.30;;;;;;5105786;28;20424;-78
2021/05/15 07:30:05;;;;;;;3.85;2.15;;;20.20;58.60;;;;;;5093817;28;20114;-78
2021/05/15 07:32:30;;;;;;;2.88;2.20;;;20.30;58.80;;;;;;5078490;28;20027;-78
2021/05/15 07:34:56;;;;;;;4.38;2.50;;;20.40;58.60;;;;;;5112251;28;20507;-79
2021/05/15 07:37:22;;;;;;;3.13;2.10;;;20.50;57.70;;;;;;5094886;28;20473;-78
2021/05/15 07:39:48;;;;;;;2.17;1.98;;;20.50;58.00;;;;;;5106126;28;20074;-78
2021/05/15 07:42:14;;;;;;;2.65;1.50;;;20.50;57.70;;;;;;5100384;28;20103;-79
2021/05/15 07:44:41;;;;;;;2.63;1.92;;;20.50;57.40;;;;;;5105779;28;20027;-78
2021/05/15 07:47:07;;;;;;;2.67;1.90;;;20.70;57.10;;;;;;5102078;28;20038;-78
2021/05/15 07:49:33;;;;;;;3.67;1.80;;;20.70;56.40;;;;;;5094238;28;20032;-77
2021/05/15 07:51:59;;;;;;;3.20;2.00;;;20.80;56.20;;;;;;5093271;28;20016;-78
2021/05/15 07:54:26;;;;;;;4.10;2.08;;;20.90;56.10;;;;;;5086633;28;20384;-77
2021/05/15 07:56:54;;;;;;;3.55;1.80;;;20.90;56.10;;;;;;5089287;28;20072;-79
2021/05/15 07:59:21;;;;;;;3.90;2.20;;;21.00;55.70;;;;;;5103936;28;20019;-78
2021/05/15 08:01:47;;;;;;;2.53;1.60;;;21.20;55.40;;;;;;5093561;28;20027;-79
2021/05/15 08:04:13;;;;;;;1.88;1.58;;;21.20;54.90;;;;;;5107724;28;20093;-78
2021/05/15 08:06:38;;;;;;;2.88;1.60;;;21.30;54.50;;;;;;5079540;28;20062;-78
2021/05/15 08:09:05;;;;;;;1.45;1.35;;;21.40;53.70;;;;;;5099153;28;20039;-78
2021/05/15 08:11:32;;;;;;;1.48;1.38;;;21.40;53.60;;;;;;5104881;28;20035;-76
2021/05/15 08:13:59;;;;;;;3.08;1.60;;;21.50;53.40;;;;;;5100594;28;20051;-75
2021/05/15 08:16:25;;;;;;;1.98;1.63;;;21.60;53.50;;;;;;5091024;28;20045;-75
2021/05/15 08:18:50;;;;;;;1.70;1.60;;;21.60;52.80;;;;;;5097495;28;21016;-75
2021/05/15 08:21:16;;;;;;;2.47;1.50;;;21.70;52.60;;;;;;5102603;28;20531;-78
2021/05/15 08:23:42;;;;;;;1.83;1.40;;;21.80;51.40;;;;;;5089652;28;20044;-76
2021/05/15 08:26:12;;;;;;;1.48;1.38;;;21.80;51.30;;;;;;5104163;28;20024;-76
2021/05/15 08:28:46;;;;;;;4.05;1.65;;;21.90;51.20;;;;;;5081520;28;20020;-75
2021/05/15 08:31:12;;;;;;;5.38;2.00;;;21.90;51.60;;;;;;5072447;28;20023;-77
2021/05/15 08:33:38;;;;;;;7.18;2.78;;;22.00;51.20;;;;;;5102932;28;20373;-75
2021/05/15 08:36:05;;;;;;;1.70;1.42;;;22.00;51.20;;;;;;5101379;28;20016;-77
2021/05/15 08:38:33;;;;;;;1.90;1.52;;;22.00;50.80;;;;;;5105322;28;20052;-76
2021/05/15 08:40:59;;;;;;;1.42;1.25;;;22.10;50.00;;;;;;5105437;28;20081;-76
2021/05/15 08:43:31;;;;;;;1.48;1.35;;;22.10;49.80;;;;;;5095146;28;20027;-76
2021/05/15 08:45:59;;;;;;;;;;;22.40;49.70;;;;;;5109732;28;20024;-77
2021/05/15 08:48:30;;;;;;;1.50;1.40;;;22.40;49.30;;;;;;5093928;28;19942;-78
2021/05/15 08:50:59;;;;;;;1.52;1.42;;;22.60;49.40;;;;;;5094334;28;20027;-77
2021/05/15 08:53:25;;;;;;;1.67;1.45;;;22.80;49.60;;;;;;5110930;28;20461;-75
2021/05/15 08:55:52;;;;;;;1.98;1.40;;;22.90;48.90;;;;;;5091312;28;20023;-74
2021/05/15 08:58:22;;;;;;;1.35;1.25;;;23.10;48.30;;;;;;5118996;28;20028;-75
2021/05/15 09:00:49;;;;;;;3.08;1.70;;;23.20;47.40;;;;;;5115658;28;20455;-74
2021/05/15 09:03:19;;;;;;;2.05;1.85;;;23.30;47.40;;;;;;5099021;28;20034;-73
2021/05/15 09:05:48;;;;;;;3.10;1.55;;;23.40;46.80;;;;;;5107288;27;20024;-78
2021/05/15 09:08:15;;;;;;;1.40;1.20;;;23.40;47.00;;;;;;5068870;28;20024;-77
2021/05/15 09:10:47;;;;;;;1.40;1.30;;;23.40;46.90;;;;;;5113612;28;20512;-76
2021/05/15 09:13:19;;;;;;;1.88;1.30;;;23.50;47.20;;;;;;5102705;28;20028;-77
2021/05/15 09:15:52;;;;;;;2.13;1.60;;;23.60;47.50;;;;;;5090063;28;20382;-75
2021/05/15 09:18:26;;;;;;;2.58;2.28;;;23.90;46.40;;;;;;5099757;28;20059;-76
2021/05/15 09:20:55;;;;;;;1.85;1.05;;;24.00;45.70;;;;;;5106808;28;20031;-76
2021/05/15 09:23:26;;;;;;;1.23;1.00;;;24.10;46.00;;;;;;5103279;28;20506;-76
2021/05/15 09:25:56;;;;;;;1.88;1.27;;;24.10;46.20;;;;;;5083850;28;20055;-76
2021/05/15 09:28:44;;;;;;;1.40;1.30;;;24.20;46.20;;;;;;5084151;28;20046;-75
2021/05/15 09:31:12;;;;;;;1.50;1.13;;;24.20;45.80;;;;;;5087275;28;20094;-77
2021/05/15 09:33:38;;;;;;;1.10;0.88;;;24.10;45.20;;;;;;5086103;28;20395;-75
2021/05/15 09:36:31;;;;;;;1.10;1.00;;;24.10;45.10;;;;;;5084291;28;20032;-76
2021/05/15 09:39:03;;;;;;;1.50;1.35;;;24.00;45.10;;;;;;5090286;28;20051;-75
2021/05/15 09:41:46;;;;;;;1.20;1.10;;;23.90;45.70;;;;;;5085472;28;20515;-77
2021/05/15 09:44:27;;;;;;;1.27;1.10;;;23.90;45.10;;;;;;5088038;28;20031;-79
2021/05/15 09:46:54;;;;;;;0.90;0.90;;;23.70;44.80;;;;;;5102240;28;20034;-76
2021/05/15 09:49:30;;;;;;;3.45;1.20;;;23.60;45.40;;;;;;5107747;28;20457;-76
2021/05/15 09:52:01;;;;;;;1.20;1.10;;;23.80;45.30;;;;;;5089424;28;20060;-77
2021/05/15 09:54:29;;;;;;;1.83;1.02;;;23.80;44.60;;;;;;5092026;28;20122;-76
2021/05/15 09:57:07;;;;;;;2.28;1.50;;;24.00;44.30;;;;;;5085381;28;20070;-77
2021/05/15 09:59:38;;;;;;;3.00;1.90;;;24.10;44.70;;;;;;5088331;28;20504;-76
2021/05/15 10:02:15;;;;;;;2.88;1.30;;;24.20;44.70;;;;;;5082944;28;20114;-77
2021/05/15 10:04:51;;;;;;;3.28;1.98;;;24.20;43.30;;;;;;5078887;28;20354;-76
2021/05/15 10:07:24;;;;;;;3.10;2.03;;;24.30;43.50;;;;;;5081563;28;20389;-75
2021/05/15 10:09:50;;;;;;;1.85;1.27;;;24.30;43.60;;;;;;5082222;28;20024;-75
2021/05/15 10:12:16;;;;;;;1.92;1.40;;;24.40;44.10;;;;;;5082492;28;20039;-76
2021/05/15 10:14:42;;;;;;;2.75;1.60;;;24.50;43.40;;;;;;5089216;28;20473;-76
2021/05/15 10:17:08;;;;;;;1.35;1.25;;;24.50;44.00;;;;;;5101070;28;20076;-76
2021/05/15 10:19:33;;;;;;;2.45;1.65;;;24.60;44.60;;;;;;5085184;28;20031;-74
2021/05/15 10:22:00;;;;;;;3.58;1.92;;;24.70;44.40;;;;;;5095385;28;20111;-76
2021/05/15 10:24:29;;;;;;;3.42;2.13;;;24.80;44.40;;;;;;5086149;28;20050;-76
2021/05/15 10:27:04;;;;;;;1.85;1.45;;;24.80;44.30;;;;;;5098668;28;20027;-74
2021/05/15 10:29:48;;;;;;;2.67;1.50;;;24.80;43.60;;;;;;5077105;28;20032;-74
2021/05/15 10:32:23;;;;;;;0.95;0.80;;;24.90;42.90;;;;;;5080709;28;20110;-74
2021/05/15 10:34:56;;;;;;;1.23;1.10;;;24.90;43.20;;;;;;5087619;27;20025;-75
2021/05/15 10:37:22;;;;;;;1.92;0.98;;;24.90;43.10;;;;;;5085321;28;20031;-75
2021/05/15 10:39:49;;;;;;;1.23;0.80;;;25.00;43.40;;;;;;5082891;28;20052;-74
2021/05/15 10:42:29;;;;;;;1.88;0.90;;;25.10;42.60;;;;;;5090908;28;20085;-74
2021/05/15 10:44:55;;;;;;;1.48;1.00;;;25.20;42.00;;;;;;5108015;27;20032;-74
2021/05/15 10:47:24;;;;;;;0.68;0.68;;;25.20;42.50;;;;;;5087939;28;20085;-74
2021/05/15 10:49:50;;;;;;;1.98;1.05;;;25.30;42.30;;;;;;5091298;28;20066;-76
2021/05/15 10:52:17;;;;;;;1.48;1.13;;;25.30;42.40;;;;;;5097566;27;20059;-75
2021/05/15 10:54:50;;;;;;;1.00;0.90;;;25.50;42.20;;;;;;5090247;28;20024;-75
2021/05/15 10:57:26;;;;;;;2.90;1.25;;;25.40;41.50;;;;;;5087781;28;20038;-75
2021/05/15 10:59:57;;;;;;;1.02;0.95;;;25.30;41.10;;;;;;5094594;28;20043;-75
2021/05/15 11:02:40;;;;;;;1.88;1.00;;;25.10;42.10;;;;;;5102476;28;20650;-75
2021/05/15 11:05:17;;;;;;;2.28;1.20;;;25.10;42.40;;;;;;5089654;28;20039;-75
2021/05/15 11:07:43;;;;;;;0.75;0.75;;;25.30;41.10;;;;;;5090747;28;20537;-74
2021/05/15 11:10:16;;;;;;;2.03;1.05;;;25.30;40.90;;;;;;5109793;28;20020;-74
2021/05/15 11:12:43;;;;;;;1.15;1.10;;;25.30;41.10;;;;;;5089610;28;20512;-74
2021/05/15 11:15:12;;;;;;;1.13;0.80;;;25.40;41.40;;;;;;5102399;28;20111;-75
2021/05/15 11:17:38;;;;;;;0.95;0.85;;;25.50;41.30;;;;;;5094632;28;20472;-75
2021/05/15 11:20:12;;;;;;;1.83;0.98;;;25.60;41.00;;;;;;5111434;28;20046;-75
2021/05/15 11:22:38;;;;;;;0.85;0.85;;;25.50;40.70;;;;;;5098745;28;20051;-77
2021/05/15 11:25:16;;;;;;;1.65;0.90;;;25.40;40.70;;;;;;5111365;28;20444;-75
2021/05/15 11:27:54;;;;;;;2.83;1.20;;;25.30;40.80;;;;;;5097725;28;20054;-74
2021/05/15 11:30:32;;;;;;;1.70;0.90;;;25.40;40.50;;;;;;5087560;28;20096;-75
2021/05/15 11:33:05;;;;;;;2.38;1.38;;;25.50;39.90;;;;;;5091882;28;20015;-75
2021/05/15 11:35:43;;;;;;;0.60;0.60;;;25.50;40.70;;;;;;5108633;28;20011;-75
2021/05/15 11:38:23;;;;;;;0.52;0.52;;;25.50;40.20;;;;;;5101340;28;20044;-75
2021/05/15 11:40:48;;;;;;;1.45;1.20;;;25.40;40.20;;;;;;5102241;28;20044;-76
2021/05/15 11:43:17;;;;;;;0.88;0.88;;;25.50;40.40;;;;;;5099361;28;20384;-75
2021/05/15 11:45:43;;;;;;;1.08;0.95;;;25.50;39.80;;;;;;5076028;28;20034;-74
2021/05/15 11:48:21;;;;;;;1.27;0.90;;;25.50;39.60;;;;;;5078241;28;20459;-75
2021/05/15 11:50:58;;;;;;;3.22;0.90;;;25.50;39.90;;;;;;5082890;28;20096;-74
2021/05/15 11:53:25;;;;;;;2.45;1.10;;;25.60;40.40;;;;;;5112216;28;20019;-75
2021/05/15 11:55:53;;;;;;;1.23;1.17;;;25.80;40.30;;;;;;5097849;28;20472;-77
2021/05/15 11:58:19;;;;;;;1.15;0.90;;;25.90;40.20;;;;;;5088599;28;20428;-76
2021/05/15 12:00:45;;;;;;;2.50;1.10;;;26.00;40.40;;;;;;5105043;28;20095;-75
2021/05/15 12:03:11;;;;;;;0.80;0.80;;;26.10;40.00;;;;;;5094002;28;20036;-75
2021/05/15 12:05:37;;;;;;;0.93;0.70;;;26.10;39.00;;;;;;5094181;28;20119;-75
2021/05/15 12:08:12;;;;;;;0.93;0.88;;;26.10;38.90;;;;;;5105287;28;20431;-75
2021/05/15 12:10:42;;;;;;;1.25;0.77;;;26.20;38.90;;;;;;5106668;28;20019;-75
2021/05/15 12:13:08;;;;;;;4.28;1.83;;;26.30;38.80;;;;;;5109437;28;20074;-76
2021/05/15 12:15:37;;;;;;;1.98;1.00;;;26.10;38.70;;;;;;5103798;28;20020;-75
2021/05/15 12:18:03;;;;;;;1.65;1.30;;;25.90;39.00;;;;;;5106602;28;20026;-75
2021/05/15 12:20:46;;;;;;;1.05;0.80;;;26.00;39.90;;;;;;5086184;28;20497;-75
2021/05/15 12:23:16;;;;;;;1.42;0.85;;;26.40;40.10;;;;;;5104156;28;20020;-76
2021/05/15 12:25:43;;;;;;;0.70;0.70;;;26.70;39.70;;;;;;5100879;28;20026;-75
2021/05/15 12:28:24;;;;;;;1.55;1.45;;;26.70;38.80;;;;;;5087479;28;20035;-75
2021/05/15 12:30:53;;;;;;;1.20;1.10;;;26.70;38.50;;;;;;5081034;28;21697;-74
2021/05/15 12:33:25;;;;;;;1.13;0.90;;;26.80;38.50;;;;;;5093937;28;20024;-75
2021/05/15 12:36:03;;;;;;;0.97;0.87;;;27.20;38.60;;;;;;5081230;28;20024;-75
2021/05/15 12:38:31;;;;;;;1.17;1.10;;;27.70;38.00;;;;;;5083668;28;20776;-75
2021/05/15 12:41:11;;;;;;;1.30;1.20;;;27.90;38.00;;;;;;5094439;28;20234;-75
2021/05/15 12:43:39;;;;;;;1.40;0.90;;;28.40;38.10;;;;;;5097342;28;20413;-75
2021/05/15 12:46:10;;;;;;;2.30;1.13;;;29.10;37.70;;;;;;5082002;28;20122;-76
2021/05/15 12:48:36;;;;;;;1.08;0.98;;;29.80;36.80;;;;;;5096819;28;20096;-77
2021/05/15 12:51:04;;;;;;;1.10;0.90;;;30.50;35.30;;;;;;5095938;28;20465;-77
2021/05/15 12:53:30;;;;;;;2.08;1.00;;;30.90;34.70;;;;;;5082017;28;20546;-74